createdAt,value
2018-08-11T00:00:48.424Z,0.00
2018-08-11T00:01:48.353Z,0.00
2018-08-11T00:02:48.280Z,0.00
2018-08-11T00:03:48.208Z,0.00
2018-08-11T00:04:48.136Z,0.00
2018-08-11T00:05:48.063Z,0.00
2018-08-11T00:06:47.990Z,0.00
2018-08-11T00:07:47.919Z,0.00
2018-08-11T00:08:47.846Z,0.00
2018-08-11T00:09:47.776Z,0.00
2018-08-11T00:10:47.701Z,0.00
2018-08-11T00:11:47.627Z,0.00
2018-08-11T00:12:47.556Z,0.00
2018-08-11T00:13:47.485Z,0.00
2018-08-11T00:14:47.410Z,0.00
2018-08-11T00:15:47.339Z,0.00
2018-08-11T00:16:47.272Z,0.00
2018-08-11T00:17:47.195Z,0.00
2018-08-11T00:18:47.121Z,0.00
2018-08-11T00:19:47.050Z,0.00
2018-08-11T00:20:46.978Z,0.00
2018-08-11T00:21:46.907Z,0.00
2018-08-11T00:22:46.832Z,0.00
2018-08-11T00:23:46.760Z,0.00
2018-08-11T00:24:46.689Z,0.00
2018-08-11T00:25:46.616Z,0.00
2018-08-11T00:26:46.542Z,0.00
2018-08-11T00:27:46.471Z,0.00
2018-08-11T00:28:46.400Z,0.00
2018-08-11T00:29:46.326Z,0.00
2018-08-11T00:30:46.254Z,0.00
2018-08-11T00:31:46.181Z,0.00
2018-08-11T00:32:46.112Z,0.00
2018-08-11T00:33:46.039Z,0.00
2018-08-11T00:34:45.963Z,0.00
2018-08-11T00:35:45.890Z,0.00
2018-08-11T00:36:45.819Z,0.00
2018-08-11T00:37:45.746Z,0.00
2018-08-11T00:38:45.676Z,0.00
2018-08-11T00:39:45.601Z,0.00
2018-08-11T00:40:45.532Z,0.00
2018-08-11T00:41:45.456Z,0.00
2018-08-11T00:42:45.389Z,0.00
2018-08-11T00:43:45.312Z,0.00
2018-08-11T00:44:45.237Z,0.00
2018-08-11T00:45:45.165Z,0.00
2018-08-11T00:46:45.094Z,0.00
2018-08-11T00:47:45.019Z,0.00
2018-08-11T00:48:44.950Z,0.00
2018-08-11T00:49:44.874Z,0.00
2018-08-11T00:50:44.800Z,0.00
2018-08-11T00:51:44.727Z,0.00
2018-08-11T00:52:44.654Z,0.00
2018-08-11T00:53:44.584Z,0.00
2018-08-11T00:54:44.508Z,0.00
2018-08-11T00:55:44.436Z,0.00
2018-08-11T00:56:44.364Z,0.00
2018-08-11T00:57:44.290Z,0.00
2018-08-11T00:58:44.218Z,0.00
2018-08-11T00:59:44.143Z,0.00
2018-08-11T01:00:44.071Z,0.00
2018-08-11T01:01:43.999Z,0.00
2018-08-11T01:02:43.928Z,0.00
2018-08-11T01:03:43.853Z,0.00
2018-08-11T01:04:43.779Z,0.00
2018-08-11T01:05:43.705Z,0.00
2018-08-11T01:06:43.632Z,0.00
2018-08-11T01:07:43.562Z,0.00
2018-08-11T01:08:43.486Z,0.00
2018-08-11T01:09:43.414Z,0.00
2018-08-11T01:10:43.366Z,0.00
2018-08-11T01:11:43.266Z,0.00
2018-08-11T01:12:43.194Z,0.00
2018-08-11T01:13:43.124Z,0.00
2018-08-11T01:14:43.046Z,0.00
2018-08-11T01:15:42.975Z,0.00
2018-08-11T01:16:42.901Z,0.00
2018-08-11T01:17:42.830Z,0.00
2018-08-11T01:18:42.756Z,0.00
2018-08-11T01:19:42.681Z,0.00
2018-08-11T01:20:42.609Z,0.00
2018-08-11T01:21:42.557Z,0.00
2018-08-11T01:22:42.464Z,0.00
2018-08-11T01:23:42.388Z,0.00
2018-08-11T01:24:42.315Z,0.00
2018-08-11T01:25:42.250Z,0.00
2018-08-11T01:26:42.169Z,0.00
2018-08-11T01:27:42.097Z,0.00
2018-08-11T01:28:42.023Z,0.00
2018-08-11T01:29:41.951Z,0.00
2018-08-11T01:30:41.878Z,0.00
2018-08-11T01:31:41.804Z,0.00
2018-08-11T01:32:41.736Z,0.00
2018-08-11T01:33:41.658Z,0.00
2018-08-11T01:34:41.585Z,0.00
2018-08-11T01:35:41.512Z,0.00
2018-08-11T01:36:41.437Z,0.00
2018-08-11T01:37:41.364Z,0.00
2018-08-11T01:38:41.292Z,0.00
2018-08-11T01:39:41.220Z,0.00
2018-08-11T01:40:41.147Z,0.00
2018-08-11T01:41:41.074Z,0.00
2018-08-11T01:42:40.999Z,0.00
2018-08-11T01:43:40.928Z,0.00
2018-08-11T01:44:40.853Z,0.00
2018-08-11T01:45:40.781Z,0.00
2018-08-11T01:46:40.706Z,0.00
2018-08-11T01:47:40.634Z,0.00
2018-08-11T01:48:40.561Z,0.00
2018-08-11T01:49:40.504Z,0.00
2018-08-11T01:50:40.415Z,0.00
2018-08-11T01:51:40.346Z,0.00
2018-08-11T01:52:40.270Z,0.00
2018-08-11T01:53:40.197Z,0.00
2018-08-11T01:54:40.123Z,0.00
2018-08-11T01:55:40.051Z,0.00
2018-08-11T01:56:39.981Z,0.00
2018-08-11T01:57:39.906Z,0.00
2018-08-11T01:58:39.831Z,0.00
2018-08-11T01:59:39.759Z,0.00
2018-08-11T02:00:39.686Z,0.00
2018-08-11T02:01:39.613Z,0.00
2018-08-11T02:02:39.539Z,0.00
2018-08-11T02:03:39.469Z,0.00
2018-08-11T02:04:39.395Z,0.00
2018-08-11T02:05:39.321Z,0.00
2018-08-11T02:06:39.248Z,0.00
2018-08-11T02:07:39.175Z,0.00
2018-08-11T02:08:39.102Z,0.00
2018-08-11T02:09:39.033Z,0.00
2018-08-11T02:10:38.955Z,0.00
2018-08-11T02:11:38.885Z,0.00
2018-08-11T02:12:38.810Z,0.00
2018-08-11T02:13:38.740Z,0.00
2018-08-11T02:14:38.664Z,0.00
2018-08-11T02:15:38.594Z,0.00
2018-08-11T02:16:38.519Z,0.00
2018-08-11T02:17:38.446Z,0.00
2018-08-11T02:18:38.373Z,0.00
2018-08-11T02:19:38.301Z,0.00
2018-08-11T02:20:38.229Z,0.00
2018-08-11T02:21:38.156Z,0.00
2018-08-11T02:22:38.083Z,0.00
2018-08-11T02:23:38.011Z,0.00
2018-08-11T02:24:37.944Z,0.00
2018-08-11T02:25:37.866Z,0.00
2018-08-11T02:26:37.791Z,0.00
2018-08-11T02:27:37.722Z,0.00
2018-08-11T02:28:37.648Z,0.00
2018-08-11T02:29:37.576Z,0.00
2018-08-11T02:30:37.503Z,0.00
2018-08-11T02:31:37.432Z,0.00
2018-08-11T02:32:37.359Z,0.00
2018-08-11T02:33:37.291Z,0.00
2018-08-11T02:34:37.213Z,0.00
2018-08-11T02:35:37.139Z,0.00
2018-08-11T02:36:37.074Z,0.00
2018-08-11T02:37:36.995Z,0.00
2018-08-11T02:38:36.923Z,0.00
2018-08-11T02:39:36.851Z,0.00
2018-08-11T02:40:36.777Z,0.00
2018-08-11T02:41:36.706Z,0.00
2018-08-11T02:42:36.633Z,0.00
2018-08-11T02:43:36.710Z,0.00
2018-08-11T02:44:36.488Z,0.00
2018-08-11T02:45:36.416Z,0.00
2018-08-11T02:46:36.345Z,0.00
2018-08-11T02:47:36.272Z,0.00
2018-08-11T02:48:36.202Z,0.00
2018-08-11T02:49:36.129Z,0.00
2018-08-11T02:50:36.054Z,0.00
2018-08-11T02:51:35.981Z,0.00
2018-08-11T02:52:35.909Z,0.00
2018-08-11T02:53:35.837Z,0.00
2018-08-11T02:54:35.768Z,0.00
2018-08-11T02:55:35.692Z,0.00
2018-08-11T02:56:35.622Z,0.00
2018-08-11T02:57:35.549Z,0.00
2018-08-11T02:58:35.476Z,0.00
2018-08-11T02:59:35.404Z,0.00
2018-08-11T03:00:35.332Z,0.00
2018-08-11T03:01:35.261Z,0.00
2018-08-11T03:02:35.275Z,0.00
2018-08-11T03:03:35.116Z,0.00
2018-08-11T03:04:35.046Z,0.00
2018-08-11T03:05:34.973Z,0.00
2018-08-11T03:06:34.900Z,0.00
2018-08-11T03:07:34.828Z,0.00
2018-08-11T03:08:34.757Z,0.00
2018-08-11T03:09:35.035Z,0.00
2018-08-11T03:10:34.622Z,0.00
2018-08-11T03:11:34.540Z,0.00
2018-08-11T03:12:34.468Z,0.00
2018-08-11T03:13:34.397Z,0.00
2018-08-11T03:14:34.324Z,0.00
2018-08-11T03:15:34.252Z,0.00
2018-08-11T03:16:34.180Z,0.00
2018-08-11T03:17:34.108Z,0.00
2018-08-11T03:18:34.036Z,0.00
2018-08-11T03:19:33.964Z,0.00
2018-08-11T03:20:33.892Z,0.00
2018-08-11T03:21:33.820Z,0.00
2018-08-11T03:22:33.752Z,0.00
2018-08-11T03:23:33.675Z,0.00
2018-08-11T03:24:33.603Z,0.00
2018-08-11T03:25:33.531Z,0.00
2018-08-11T03:26:33.459Z,0.00
2018-08-11T03:27:33.387Z,0.00
2018-08-11T03:28:33.315Z,0.00
2018-08-11T03:29:33.242Z,0.00
2018-08-11T03:30:33.181Z,0.00
2018-08-11T03:31:33.099Z,0.00
2018-08-11T03:32:33.028Z,0.00
2018-08-11T03:33:32.958Z,0.00
2018-08-11T03:34:32.881Z,0.00
2018-08-11T03:35:32.809Z,0.00
2018-08-11T03:36:32.736Z,0.00
2018-08-11T03:37:32.664Z,0.00
2018-08-11T03:38:32.590Z,0.00
2018-08-11T03:39:32.520Z,0.00
2018-08-11T03:40:32.446Z,0.00
2018-08-11T03:41:32.375Z,0.00
2018-08-11T03:42:32.302Z,0.00
2018-08-11T03:43:32.230Z,0.00
2018-08-11T03:44:32.157Z,0.00
2018-08-11T03:45:32.086Z,0.00
2018-08-11T03:46:32.011Z,0.00
2018-08-11T03:47:31.940Z,0.00
2018-08-11T03:48:31.867Z,0.00
2018-08-11T03:49:31.797Z,0.00
2018-08-11T03:50:31.721Z,0.00
2018-08-11T03:51:31.649Z,0.00
2018-08-11T03:52:31.636Z,0.00
2018-08-11T03:53:31.505Z,0.00
2018-08-11T03:54:31.432Z,0.00
2018-08-11T03:55:31.361Z,0.00
2018-08-11T03:56:31.286Z,0.00
2018-08-11T03:57:31.214Z,0.00
2018-08-11T03:58:31.141Z,0.00
2018-08-11T03:59:31.069Z,0.00
2018-08-11T04:00:30.997Z,0.00
2018-08-11T04:01:30.925Z,0.00
2018-08-11T04:02:30.853Z,0.00
2018-08-11T04:03:30.781Z,0.00
2018-08-11T04:04:30.705Z,0.00
2018-08-11T04:05:30.635Z,5.63
2018-08-11T04:06:30.612Z,5.63
2018-08-11T04:07:30.489Z,5.63
2018-08-11T04:08:30.416Z,5.63
2018-08-11T04:09:30.345Z,5.63
2018-08-11T04:10:30.268Z,5.63
2018-08-11T04:11:30.195Z,5.63
2018-08-11T04:12:30.124Z,5.63
2018-08-11T04:13:30.052Z,11.25
2018-08-11T04:14:29.978Z,11.25
2018-08-11T04:15:29.905Z,11.25
2018-08-11T04:16:29.832Z,11.25
2018-08-11T04:17:29.759Z,11.25
2018-08-11T04:18:29.687Z,11.25
2018-08-11T04:19:29.611Z,16.88
2018-08-11T04:20:29.541Z,16.88
2018-08-11T04:21:29.466Z,16.88
2018-08-11T04:22:29.393Z,16.88
2018-08-11T04:23:29.319Z,16.88
2018-08-11T04:24:29.247Z,16.88
2018-08-11T04:25:29.176Z,22.50
2018-08-11T04:26:29.099Z,22.50
2018-08-11T04:27:29.026Z,22.50
2018-08-11T04:28:28.954Z,22.50
2018-08-11T04:29:28.881Z,28.13
2018-08-11T04:30:28.807Z,28.13
2018-08-11T04:31:28.734Z,28.13
2018-08-11T04:32:28.661Z,28.13
2018-08-11T04:33:28.588Z,28.13
2018-08-11T04:34:28.513Z,28.13
2018-08-11T04:35:28.440Z,33.75
2018-08-11T04:36:28.369Z,33.75
2018-08-11T04:37:28.295Z,33.75
2018-08-11T04:38:28.220Z,33.75
2018-08-11T04:39:28.149Z,33.75
2018-08-11T04:40:28.075Z,39.38
2018-08-11T04:41:28.001Z,39.38
2018-08-11T04:42:27.928Z,39.38
2018-08-11T04:43:27.855Z,39.38
2018-08-11T04:44:27.782Z,39.38
2018-08-11T04:45:27.709Z,45.00
2018-08-11T04:46:27.636Z,45.00
2018-08-11T04:47:27.562Z,45.00
2018-08-11T04:48:27.490Z,45.00
2018-08-11T04:49:27.417Z,45.00
2018-08-11T04:50:27.342Z,50.63
2018-08-11T04:51:27.269Z,50.63
2018-08-11T04:52:27.199Z,50.63
2018-08-11T04:53:27.125Z,50.63
2018-08-11T04:54:27.051Z,50.63
2018-08-11T04:55:26.977Z,50.63
2018-08-11T04:56:26.904Z,56.25
2018-08-11T04:57:26.840Z,56.25
2018-08-11T04:58:26.762Z,61.88
2018-08-11T04:59:26.684Z,61.88
2018-08-11T05:00:26.612Z,61.88
2018-08-11T05:01:26.541Z,61.88
2018-08-11T05:02:26.471Z,61.88
2018-08-11T05:03:26.395Z,61.88
2018-08-11T05:04:26.320Z,67.50
2018-08-11T05:05:26.246Z,61.88
2018-08-11T05:06:26.173Z,61.88
2018-08-11T05:07:26.100Z,61.88
2018-08-11T05:08:26.028Z,61.88
2018-08-11T05:09:25.955Z,61.88
2018-08-11T05:10:25.881Z,61.88
2018-08-11T05:11:25.807Z,61.88
2018-08-11T05:12:26.084Z,61.88
2018-08-11T05:13:25.663Z,61.88
2018-08-11T05:14:25.589Z,61.88
2018-08-11T05:15:25.517Z,61.88
2018-08-11T05:16:25.443Z,67.50
2018-08-11T05:17:25.370Z,67.50
2018-08-11T05:18:25.297Z,73.13
2018-08-11T05:19:25.227Z,78.75
2018-08-11T05:20:25.153Z,84.38
2018-08-11T05:21:25.081Z,84.38
2018-08-11T05:22:25.006Z,84.38
2018-08-11T05:23:24.937Z,84.38
2018-08-11T05:24:24.866Z,84.38
2018-08-11T05:25:24.789Z,84.38
2018-08-11T05:26:24.816Z,84.38
2018-08-11T05:27:24.644Z,78.75
2018-08-11T05:28:24.571Z,78.75
2018-08-11T05:29:24.498Z,73.13
2018-08-11T05:30:24.425Z,73.13
2018-08-11T05:31:24.353Z,73.13
2018-08-11T05:32:24.280Z,73.13
2018-08-11T05:33:24.208Z,73.13
2018-08-11T05:34:24.139Z,73.13
2018-08-11T05:35:24.065Z,73.13
2018-08-11T05:36:23.990Z,78.75
2018-08-11T05:37:23.917Z,78.75
2018-08-11T05:38:23.845Z,78.75
2018-08-11T05:39:23.773Z,84.38
2018-08-11T05:40:23.700Z,90.00
2018-08-11T05:41:23.627Z,95.63
2018-08-11T05:42:23.555Z,101.25
2018-08-11T05:43:23.481Z,101.25
2018-08-11T05:44:23.411Z,101.25
2018-08-11T05:45:23.339Z,90.00
2018-08-11T05:46:23.266Z,90.00
2018-08-11T05:47:23.193Z,101.25
2018-08-11T05:48:23.121Z,106.88
2018-08-11T05:49:23.048Z,106.88
2018-08-11T05:50:22.975Z,101.25
2018-08-11T05:51:22.903Z,90.00
2018-08-11T05:52:22.831Z,90.00
2018-08-11T05:53:22.758Z,90.00
2018-08-11T05:54:22.685Z,95.63
2018-08-11T05:55:22.614Z,95.63
2018-08-11T05:56:22.541Z,101.25
2018-08-11T05:57:22.469Z,101.25
2018-08-11T05:58:22.398Z,106.88
2018-08-11T05:59:22.325Z,112.50
2018-08-11T06:00:22.253Z,118.13
2018-08-11T06:01:22.181Z,118.13
2018-08-11T06:02:22.108Z,123.75
2018-08-11T06:03:22.035Z,146.25
2018-08-11T06:04:21.965Z,151.88
2018-08-11T06:05:21.891Z,174.38
2018-08-11T06:06:21.817Z,168.75
2018-08-11T06:07:21.746Z,174.38
2018-08-11T06:08:21.673Z,163.13
2018-08-11T06:09:21.603Z,157.50
2018-08-11T06:10:21.572Z,168.75
2018-08-11T06:11:21.457Z,180.00
2018-08-11T06:12:21.385Z,185.63
2018-08-11T06:13:21.313Z,208.13
2018-08-11T06:14:21.240Z,208.13
2018-08-11T06:15:21.169Z,208.13
2018-08-11T06:16:21.096Z,196.88
2018-08-11T06:17:21.026Z,163.13
2018-08-11T06:18:20.952Z,163.13
2018-08-11T06:19:20.881Z,151.88
2018-08-11T06:20:20.811Z,129.38
2018-08-11T06:21:20.739Z,140.63
2018-08-11T06:22:20.668Z,146.25
2018-08-11T06:23:20.597Z,146.25
2018-08-11T06:24:20.523Z,151.88
2018-08-11T06:25:20.453Z,151.88
2018-08-11T06:26:20.380Z,151.88
2018-08-11T06:27:20.309Z,146.25
2018-08-11T06:28:20.236Z,151.88
2018-08-11T06:29:20.166Z,151.88
2018-08-11T06:30:20.093Z,168.75
2018-08-11T06:31:20.086Z,185.63
2018-08-11T06:32:19.959Z,241.88
2018-08-11T06:33:19.880Z,309.38
2018-08-11T06:34:19.808Z,343.13
2018-08-11T06:35:19.737Z,331.88
2018-08-11T06:36:19.666Z,281.25
2018-08-11T06:37:19.595Z,241.88
2018-08-11T06:38:19.525Z,253.13
2018-08-11T06:39:19.452Z,270.00
2018-08-11T06:40:19.382Z,286.88
2018-08-11T06:41:19.312Z,309.38
2018-08-11T06:42:19.239Z,258.75
2018-08-11T06:43:19.169Z,174.38
2018-08-11T06:44:19.100Z,157.50
2018-08-11T06:45:19.028Z,168.75
2018-08-11T06:46:18.957Z,185.63
2018-08-11T06:47:18.886Z,208.13
2018-08-11T06:48:18.820Z,202.50
2018-08-11T06:49:18.745Z,236.25
2018-08-11T06:50:18.675Z,241.88
2018-08-11T06:51:18.605Z,230.63
2018-08-11T06:52:18.536Z,196.88
2018-08-11T06:53:18.464Z,196.88
2018-08-11T06:54:18.393Z,213.75
2018-08-11T06:55:18.322Z,213.75
2018-08-11T06:56:18.252Z,219.38
2018-08-11T06:57:18.182Z,219.38
2018-08-11T06:58:18.110Z,230.63
2018-08-11T06:59:18.039Z,163.13
2018-08-11T07:00:17.969Z,123.75
2018-08-11T07:01:17.899Z,129.38
2018-08-11T07:02:17.831Z,151.88
2018-08-11T07:03:17.756Z,163.13
2018-08-11T07:04:17.690Z,163.13
2018-08-11T07:05:17.616Z,185.63
2018-08-11T07:06:17.544Z,208.13
2018-08-11T07:07:17.475Z,236.25
2018-08-11T07:08:17.403Z,247.50
2018-08-11T07:09:17.332Z,253.13
2018-08-11T07:10:17.260Z,275.63
2018-08-11T07:11:17.190Z,298.13
2018-08-11T07:12:17.123Z,298.13
2018-08-11T07:13:17.051Z,303.75
2018-08-11T07:14:16.978Z,309.38
2018-08-11T07:15:16.971Z,303.75
2018-08-11T07:16:16.836Z,292.50
2018-08-11T07:17:16.771Z,298.13
2018-08-11T07:18:16.695Z,298.13
2018-08-11T07:19:16.626Z,281.25
2018-08-11T07:20:16.554Z,281.25
2018-08-11T07:21:16.506Z,275.63
2018-08-11T07:22:16.412Z,281.25
2018-08-11T07:23:16.346Z,298.13
2018-08-11T07:24:16.272Z,320.63
2018-08-11T07:25:16.243Z,320.63
2018-08-11T07:26:16.132Z,292.50
2018-08-11T07:27:16.058Z,303.75
2018-08-11T07:28:15.988Z,315.00
2018-08-11T07:29:15.920Z,337.50
2018-08-11T07:30:15.898Z,348.75
2018-08-11T07:31:15.775Z,337.50
2018-08-11T07:32:15.705Z,343.13
2018-08-11T07:33:15.635Z,365.63
2018-08-11T07:34:15.563Z,348.75
2018-08-11T07:35:15.492Z,292.50
2018-08-11T07:36:15.491Z,270.00
2018-08-11T07:37:15.353Z,286.88
2018-08-11T07:38:15.280Z,303.75
2018-08-11T07:39:15.211Z,320.63
2018-08-11T07:40:15.140Z,343.13
2018-08-11T07:41:15.070Z,354.38
2018-08-11T07:42:14.998Z,365.63
2018-08-11T07:43:14.928Z,376.88
2018-08-11T07:44:14.857Z,399.38
2018-08-11T07:45:14.787Z,421.88
2018-08-11T07:46:14.719Z,421.88
2018-08-11T07:47:14.646Z,388.13
2018-08-11T07:48:14.578Z,348.75
2018-08-11T07:49:14.506Z,354.38
2018-08-11T07:50:14.441Z,326.25
2018-08-11T07:51:14.365Z,286.88
2018-08-11T07:52:14.294Z,247.50
2018-08-11T07:53:14.224Z,253.13
2018-08-11T07:54:14.154Z,241.88
2018-08-11T07:55:14.084Z,208.13
2018-08-11T07:56:14.012Z,202.50
2018-08-11T07:57:13.942Z,219.38
2018-08-11T07:58:13.872Z,208.13
2018-08-11T07:59:13.801Z,180.00
2018-08-11T08:00:13.731Z,168.75
2018-08-11T08:01:13.705Z,163.13
2018-08-11T08:02:13.591Z,163.13
2018-08-11T08:03:13.520Z,168.75
2018-08-11T08:04:13.449Z,185.63
2018-08-11T08:05:13.381Z,180.00
2018-08-11T08:06:13.308Z,180.00
2018-08-11T08:07:13.241Z,163.13
2018-08-11T08:08:13.171Z,174.38
2018-08-11T08:09:13.098Z,191.25
2018-08-11T08:10:13.025Z,196.88
2018-08-11T08:11:12.960Z,213.75
2018-08-11T08:12:12.887Z,241.88
2018-08-11T08:13:12.816Z,225.00
2018-08-11T08:14:12.746Z,196.88
2018-08-11T08:15:12.674Z,185.63
2018-08-11T08:16:12.604Z,151.88
2018-08-11T08:17:12.533Z,168.75
2018-08-11T08:18:12.463Z,185.63
2018-08-11T08:19:12.394Z,191.25
2018-08-11T08:20:12.322Z,202.50
2018-08-11T08:21:12.251Z,196.88
2018-08-11T08:22:12.181Z,196.88
2018-08-11T08:23:12.109Z,191.25
2018-08-11T08:24:12.039Z,185.63
2018-08-11T08:25:11.969Z,202.50
2018-08-11T08:26:12.001Z,202.50
2018-08-11T08:27:11.827Z,185.63
2018-08-11T08:28:11.757Z,185.63
2018-08-11T08:29:11.687Z,196.88
2018-08-11T08:30:11.615Z,208.13
2018-08-11T08:31:11.545Z,230.63
2018-08-11T08:32:11.476Z,258.75
2018-08-11T08:33:11.404Z,264.38
2018-08-11T08:34:11.334Z,258.75
2018-08-11T08:35:11.263Z,303.75
2018-08-11T08:36:11.194Z,337.50
2018-08-11T08:37:11.123Z,354.38
2018-08-11T08:38:11.055Z,393.75
2018-08-11T08:39:10.984Z,365.63
2018-08-11T08:40:10.912Z,343.13
2018-08-11T08:41:10.843Z,343.13
2018-08-11T08:42:10.770Z,444.38
2018-08-11T08:43:10.702Z,382.50
2018-08-11T08:44:10.630Z,360.00
2018-08-11T08:45:10.561Z,388.13
2018-08-11T08:46:10.490Z,354.38
2018-08-11T08:47:10.420Z,286.88
2018-08-11T08:48:10.351Z,258.75
2018-08-11T08:49:10.281Z,270.00
2018-08-11T08:50:10.209Z,270.00
2018-08-11T08:51:10.139Z,264.38
2018-08-11T08:52:10.070Z,281.25
2018-08-11T08:53:10.034Z,292.50
2018-08-11T08:54:09.933Z,253.13
2018-08-11T08:55:09.859Z,230.63
2018-08-11T08:56:09.790Z,264.38
2018-08-11T08:57:09.719Z,292.50
2018-08-11T08:58:09.647Z,320.63
2018-08-11T08:59:09.649Z,393.75
2018-08-11T09:00:09.507Z,270.00
2018-08-11T09:01:09.438Z,230.63
2018-08-11T09:02:09.369Z,247.50
2018-08-11T09:03:09.298Z,292.50
2018-08-11T09:04:09.228Z,354.38
2018-08-11T09:05:09.158Z,360.00
2018-08-11T09:06:09.086Z,270.00
2018-08-11T09:07:09.017Z,264.38
2018-08-11T09:08:08.946Z,292.50
2018-08-11T09:09:08.877Z,275.63
2018-08-11T09:10:08.810Z,270.00
2018-08-11T09:11:08.736Z,247.50
2018-08-11T09:12:08.666Z,365.63
2018-08-11T09:13:08.597Z,376.88
2018-08-11T09:14:08.525Z,303.75
2018-08-11T09:15:08.455Z,354.38
2018-08-11T09:16:08.387Z,438.75
2018-08-11T09:17:08.315Z,376.88
2018-08-11T09:18:08.245Z,326.25
2018-08-11T09:19:08.176Z,326.25
2018-08-11T09:20:08.106Z,292.50
2018-08-11T09:21:08.036Z,326.25
2018-08-11T09:22:07.965Z,348.75
2018-08-11T09:23:07.897Z,320.63
2018-08-11T09:24:07.826Z,320.63
2018-08-11T09:25:07.756Z,303.75
2018-08-11T09:26:07.686Z,298.13
2018-08-11T09:27:07.616Z,371.25
2018-08-11T09:28:07.547Z,365.63
2018-08-11T09:29:07.481Z,309.38
2018-08-11T09:30:07.407Z,303.75
2018-08-11T09:31:07.337Z,309.38
2018-08-11T09:32:07.268Z,326.25
2018-08-11T09:33:07.197Z,326.25
2018-08-11T09:34:07.127Z,337.50
2018-08-11T09:35:07.059Z,337.50
2018-08-11T09:36:06.989Z,315.00
2018-08-11T09:37:06.918Z,275.63
2018-08-11T09:38:06.850Z,270.00
2018-08-11T09:39:06.779Z,270.00
2018-08-11T09:40:06.709Z,247.50
2018-08-11T09:41:06.639Z,213.75
2018-08-11T09:42:06.569Z,241.88
2018-08-11T09:43:06.500Z,320.63
2018-08-11T09:44:06.447Z,292.50
2018-08-11T09:45:06.361Z,264.38
2018-08-11T09:46:06.320Z,253.13
2018-08-11T09:47:06.221Z,258.75
2018-08-11T09:48:06.151Z,281.25
2018-08-11T09:49:06.081Z,292.50
2018-08-11T09:50:06.012Z,247.50
2018-08-11T09:51:05.941Z,326.25
2018-08-11T09:52:05.872Z,388.13
2018-08-11T09:53:05.802Z,326.25
2018-08-11T09:54:05.730Z,343.13
2018-08-11T09:55:05.662Z,292.50
2018-08-11T09:56:05.592Z,292.50
2018-08-11T09:57:05.524Z,320.63
2018-08-11T09:58:05.462Z,360.00
2018-08-11T09:59:05.382Z,354.38
2018-08-11T10:00:05.317Z,461.25
2018-08-11T10:01:05.246Z,450.00
2018-08-11T10:02:05.175Z,382.50
2018-08-11T10:03:05.104Z,348.75
2018-08-11T10:04:05.035Z,309.38
2018-08-11T10:05:04.994Z,253.13
2018-08-11T10:06:04.899Z,275.63
2018-08-11T10:07:04.826Z,315.00
2018-08-11T10:08:04.757Z,376.88
2018-08-11T10:09:04.687Z,455.63
2018-08-11T10:10:04.617Z,495.00
2018-08-11T10:11:04.548Z,495.00
2018-08-11T10:12:04.507Z,472.50
2018-08-11T10:13:04.409Z,444.38
2018-08-11T10:14:04.339Z,382.50
2018-08-11T10:15:04.272Z,410.63
2018-08-11T10:16:04.200Z,455.63
2018-08-11T10:17:04.132Z,303.75
2018-08-11T10:18:04.061Z,258.75
2018-08-11T10:19:03.995Z,309.38
2018-08-11T10:20:03.921Z,326.25
2018-08-11T10:21:03.852Z,348.75
2018-08-11T10:22:03.783Z,405.00
2018-08-11T10:23:03.715Z,433.13
2018-08-11T10:24:03.644Z,450.00
2018-08-11T10:25:03.575Z,483.75
2018-08-11T10:26:03.505Z,483.75
2018-08-11T10:27:03.436Z,393.75
2018-08-11T10:28:03.367Z,337.50
2018-08-11T10:29:03.298Z,292.50
2018-08-11T10:30:03.277Z,264.38
2018-08-11T10:31:03.160Z,286.88
2018-08-11T10:32:03.090Z,337.50
2018-08-11T10:33:03.020Z,405.00
2018-08-11T10:34:02.950Z,466.88
2018-08-11T10:35:02.882Z,455.63
2018-08-11T10:36:02.813Z,466.88
2018-08-11T10:37:02.741Z,500.63
2018-08-11T10:38:02.672Z,489.38
2018-08-11T10:39:02.603Z,511.88
2018-08-11T10:40:02.551Z,438.75
2018-08-11T10:41:02.465Z,433.13
2018-08-11T10:42:02.396Z,551.25
2018-08-11T10:43:02.326Z,506.25
2018-08-11T10:44:02.256Z,585.00
2018-08-11T10:45:02.188Z,641.25
2018-08-11T10:46:02.118Z,534.38
2018-08-11T10:47:02.055Z,506.25
2018-08-11T10:48:01.980Z,540.00
2018-08-11T10:49:01.911Z,534.38
2018-08-11T10:50:01.842Z,478.13
2018-08-11T10:51:01.772Z,478.13
2018-08-11T10:52:01.704Z,450.00
2018-08-11T10:53:01.636Z,348.75
2018-08-11T10:54:01.567Z,416.25
2018-08-11T10:55:01.497Z,382.50
2018-08-11T10:56:01.532Z,399.38
2018-08-11T10:57:01.361Z,551.25
2018-08-11T10:58:01.291Z,399.38
2018-08-11T10:59:01.224Z,433.13
2018-08-11T11:00:01.155Z,506.25
2018-08-11T11:01:01.088Z,770.63
2018-08-11T11:02:01.018Z,1248.75
2018-08-11T11:03:00.950Z,534.38
2018-08-11T11:04:00.881Z,1546.88
2018-08-11T11:05:00.814Z,770.63
2018-08-11T11:06:00.744Z,495.00
2018-08-11T11:07:00.675Z,545.63
2018-08-11T11:08:00.635Z,753.75
2018-08-11T11:09:00.543Z,1569.38
2018-08-11T11:10:00.471Z,517.50
2018-08-11T11:11:00.402Z,455.63
2018-08-11T11:12:00.335Z,495.00
2018-08-11T11:13:00.266Z,1929.38
2018-08-11T11:14:00.205Z,1597.50
2018-08-11T11:15:00.130Z,1130.63
2018-08-11T11:16:00.062Z,540.00
2018-08-11T11:16:59.994Z,573.75
2018-08-11T11:17:59.924Z,556.88
2018-08-11T11:18:59.856Z,1175.63
2018-08-11T11:19:59.789Z,990.00
2018-08-11T11:20:59.721Z,776.25
2018-08-11T11:21:59.656Z,871.88
2018-08-11T11:22:59.585Z,916.88
2018-08-11T11:23:59.517Z,686.25
2018-08-11T11:24:59.449Z,635.63
2018-08-11T11:25:59.380Z,680.63
2018-08-11T11:26:59.312Z,691.88
2018-08-11T11:27:59.245Z,1023.75
2018-08-11T11:28:59.178Z,1653.75
2018-08-11T11:29:59.109Z,562.50
2018-08-11T11:30:59.042Z,770.63
2018-08-11T11:31:58.979Z,956.25
2018-08-11T11:32:58.909Z,641.25
2018-08-11T11:33:58.841Z,1400.63
2018-08-11T11:34:58.772Z,1288.13
2018-08-11T11:35:58.706Z,1878.75
2018-08-11T11:36:58.639Z,4685.63
2018-08-11T11:37:58.570Z,4764.38
2018-08-11T11:38:58.508Z,1783.13
2018-08-11T11:39:58.437Z,703.13
2018-08-11T11:40:58.371Z,2514.38
2018-08-11T11:41:58.305Z,1659.38
2018-08-11T11:42:58.237Z,2036.25
2018-08-11T11:43:58.170Z,4786.88
2018-08-11T11:44:58.106Z,2919.38
2018-08-11T11:45:58.039Z,4989.38
2018-08-11T11:46:58.001Z,5416.88
2018-08-11T11:47:57.906Z,5135.63
2018-08-11T11:48:57.841Z,4848.75
2018-08-11T11:49:57.775Z,4410.00
2018-08-11T11:50:57.712Z,1468.13
2018-08-11T11:51:57.648Z,4786.88
2018-08-11T11:52:57.584Z,5023.13
2018-08-11T11:53:57.519Z,4995.00
2018-08-11T11:54:57.455Z,5006.25
2018-08-11T11:55:57.398Z,1012.50
2018-08-11T11:56:57.332Z,1074.38
2018-08-11T11:57:57.267Z,3864.38
2018-08-11T11:58:57.207Z,5360.63
2018-08-11T11:59:57.227Z,5158.13
2018-08-11T12:00:57.085Z,2210.63
2018-08-11T12:01:57.041Z,455.63
2018-08-11T12:02:56.961Z,416.25
2018-08-11T12:03:56.900Z,461.25
2018-08-11T12:04:56.838Z,523.13
2018-08-11T12:05:56.849Z,1035.00
2018-08-11T12:06:56.713Z,838.13
2018-08-11T12:07:56.652Z,556.88
2018-08-11T12:08:56.594Z,579.38
2018-08-11T12:09:56.527Z,742.50
2018-08-11T12:10:56.464Z,5540.63
2018-08-11T12:11:56.400Z,1080.00
2018-08-11T12:12:56.337Z,5220.00
2018-08-11T12:13:56.272Z,5023.13
2018-08-11T12:14:56.208Z,4803.75
2018-08-11T12:15:56.145Z,5096.25
2018-08-11T12:16:56.084Z,4933.13
2018-08-11T12:17:56.017Z,5321.25
2018-08-11T12:18:55.954Z,5394.38
2018-08-11T12:19:55.891Z,562.50
2018-08-11T12:20:55.828Z,2126.25
2018-08-11T12:21:55.764Z,2615.63
2018-08-11T12:22:55.701Z,4899.38
2018-08-11T12:23:55.639Z,4753.13
2018-08-11T12:24:55.576Z,4083.75
2018-08-11T12:25:55.513Z,2064.38
2018-08-11T12:26:55.450Z,990.00
2018-08-11T12:27:55.387Z,731.25
2018-08-11T12:28:55.326Z,5208.75
2018-08-11T12:29:55.260Z,5180.63
2018-08-11T12:30:55.201Z,5236.88
2018-08-11T12:31:55.135Z,5146.88
2018-08-11T12:32:55.073Z,4938.75
2018-08-11T12:33:55.014Z,4893.75
2018-08-11T12:34:54.948Z,5034.38
2018-08-11T12:35:54.885Z,4916.25
2018-08-11T12:36:54.825Z,4578.75
2018-08-11T12:37:54.776Z,4961.25
2018-08-11T12:38:54.703Z,4893.75
2018-08-11T12:39:54.643Z,4753.13
2018-08-11T12:40:54.585Z,4781.25
2018-08-11T12:41:54.521Z,4826.25
2018-08-11T12:42:54.461Z,4786.88
2018-08-11T12:43:54.401Z,4477.50
2018-08-11T12:44:54.342Z,4893.75